Time;durP1;ratioP1;P1;durP2;ratioP2;P2;SDS_P1;SDS_P2;PMS_P1;PMS_P2;Temp;Humidity;BMP_temperature;BMP_pressure;BME280_temperature;BME280_humidity;BME280_pressure;Samples;Min_cycle;Max_cycle;Signal;HPM_P1;HPM_P2
2022/02/05 00:00:30;;;;;;;1.42;0.22;;;;;;;20.22;49.82;99077.38;5033838;28;20117;-62
2022/02/05 00:03:24;;;;;;;0.95;0.20;;;;;;;20.17;49.77;99074.50;5033942;28;20029;-62
2022/02/05 00:05:56;;;;;;;1.10;0.30;;;;;;;20.14;49.74;99082.03;5033672;28;20021;-62
2022/02/05 00:08:33;;;;;;;1.42;0.10;;;;;;;20.11;50.18;99079.75;5033531;28;20243;-62
2022/02/05 00:11:17;;;;;;;0.90;0.43;;;;;;;20.09;49.35;99073.69;5033456;28;20485;-62
2022/02/05 00:20:05;;;;;;;0.47;0.10;;;;;;;20.02;49.90;99077.56;5033151;28;20052;-62
2022/02/05 00:41:21;;;;;;;1.60;0.28;;;;;;;19.85;49.82;99080.03;4991255;28;20030;-62
2022/02/05 00:43:53;;;;;;;1.45;0.15;;;;;;;19.84;50.26;99086.53;4991171;28;20536;-63
2022/02/05 00:46:20;;;;;;;0.82;0.28;;;;;;;19.78;49.74;99081.97;4991283;28;20181;-62
2022/02/05 00:48:46;;;;;;;1.05;0.25;;;;;;;19.78;49.91;99084.69;4990794;28;20026;-62
2022/02/05 00:51:19;;;;;;;1.65;0.40;;;;;;;19.74;50.40;99086.19;4991249;28;20072;-62
2022/02/05 00:53:49;;;;;;;0.47;0.13;;;;;;;19.75;49.99;99079.69;4990767;28;20046;-62
2022/02/05 00:56:24;;;;;;;1.35;0.30;;;;;;;19.75;49.95;99082.41;4974908;28;20398;-63
2022/02/05 00:58:49;;;;;;;0.55;0.20;;;;;;;19.73;50.02;99084.53;4990857;28;20041;-62
2022/02/05 01:01:14;;;;;;;1.27;0.40;;;;;;;19.72;50.12;99083.69;4991004;28;20034;-62
2022/02/05 01:03:40;;;;;;;0.95;0.10;;;;;;;19.69;49.43;99083.31;4990789;28;20034;-62
2022/02/05 01:06:06;;;;;;;0.63;0.20;;;;;;;19.69;49.39;99081.41;4991000;28;20061;-62
2022/02/05 01:08:34;;;;;;;1.00;0.20;;;;;;;19.67;49.48;99074.53;4990501;28;20030;-62
2022/02/05 01:10:59;;;;;;;0.70;0.30;;;;;;;19.68;50.14;99078.91;4990908;28;20126;-62
2022/02/05 01:13:27;;;;;;;0.73;0.20;;;;;;;19.63;49.53;99079.56;5026049;28;20533;-62
2022/02/05 01:16:10;;;;;;;2.30;0.60;;;;;;;19.63;49.51;99079.56;5032467;28;20025;-62
2022/02/05 01:18:38;;;;;;;0.82;0.15;;;;;;;19.61;49.83;99076.22;5032284;28;20029;-62
2022/02/05 01:21:12;;;;;;;2.00;0.40;;;;;;;19.58;49.67;99079.41;5032801;28;20465;-62
2022/02/05 01:23:44;;;;;;;;;;;;;;;19.56;49.90;99081.53;5032715;28;20067;-62
2022/02/05 01:26:19;;;;;;;1.15;0.30;;;;;;;19.55;49.67;99071.69;5032467;28;19988;-62
2022/02/05 01:28:50;;;;;;;0.63;0.25;;;;;;;19.52;49.26;99072.94;5031459;28;20071;-62
2022/02/05 01:31:16;;;;;;;0.85;0.20;;;;;;;19.56;49.29;99076.06;5032344;28;20032;-62
2022/02/05 01:39:38;;;;;;;0.45;0.10;;;;;;;19.49;49.28;99078.81;4981798;28;20668;-62
2022/02/05 01:50:53;;;;;;;1.05;0.40;;;;;;;19.51;49.15;99076.72;4876100;29;20072;-62
2022/02/05 01:53:28;;;;;;;0.40;0.13;;;;;;;19.45;49.08;99082.19;4875790;29;20057;-63
2022/02/05 02:11:56;;;;;;;2.13;0.60;;;;;;;19.35;49.88;99066.34;4876156;29;20090;-62
2022/02/05 02:22:04;;;;;;;0.80;0.10;;;;;;;19.35;49.77;99073.69;4976282;28;20045;-62
2022/02/05 02:29:37;;;;;;;1.10;0.30;;;;;;;19.35;49.80;99073.69;5032043;28;20022;-62
2022/02/05 02:32:02;;;;;;;2.40;0.40;;;;;;;19.30;49.64;99073.50;5047084;28;20063;-62
2022/02/05 02:34:33;;;;;;;0.75;0.10;;;;;;;19.33;50.01;99086.69;5031668;28;20065;-62
2022/02/05 02:37:16;;;;;;;0.75;0.13;;;;;;;19.25;50.04;99093.22;5031758;28;20032;-63
2022/02/05 02:42:16;;;;;;;1.60;0.30;;;;;;;19.21;49.46;99087.38;5035079;28;20029;-62
2022/02/05 02:44:41;;;;;;;0.40;0.20;;;;;;;19.25;49.91;99085.06;5035212;28;20029;-62
2022/02/05 02:47:07;;;;;;;0.57;0.10;;;;;;;19.22;49.50;99078.16;5035235;28;20380;-62
2022/02/05 02:57:32;;;;;;;0.93;0.30;;;;;;;19.28;50.11;99076.44;5034952;28;20067;-62
2022/02/05 03:00:10;;;;;;;1.10;0.30;;;;;;;19.61;52.58;99075.41;5034982;28;20026;-62
2022/02/05 03:02:35;;;;;;;1.25;0.40;;;;;;;19.77;53.89;99080.28;5034793;28;20417;-62
2022/02/05 03:05:00;;;;;;;1.60;0.20;;;;;;;19.87;55.53;99077.91;5035003;28;20022;-62
2022/02/05 03:07:26;;;;;;;1.02;0.35;;;;;;;19.92;57.64;99078.06;5034795;28;20021;-62
2022/02/05 03:09:53;;;;;;;0.85;0.20;;;;;;;20.02;58.57;99083.84;5034391;28;20037;-62
2022/02/05 03:12:19;;;;;;;1.45;0.22;;;;;;;20.06;59.99;99095.16;5034828;28;20024;-62
2022/02/05 03:14:45;;;;;;;0.65;0.22;;;;;;;20.10;60.69;99097.19;5034693;28;20111;-62
2022/02/05 03:17:16;;;;;;;0.40;0.25;;;;;;;20.01;60.90;99093.09;5034663;28;20068;-62
2022/02/05 03:19:43;;;;;;;1.73;0.65;;;;;;;19.72;60.27;99088.31;5034763;28;20485;-62
2022/02/05 03:22:09;;;;;;;0.65;0.32;;;;;;;19.65;58.12;99092.97;5034698;28;20048;-62
2022/02/05 03:24:34;;;;;;;0.47;0.10;;;;;;;19.55;56.95;99098.09;5034362;28;20026;-62
2022/02/05 03:26:59;;;;;;;0.43;0.10;;;;;;;19.51;56.61;99103.97;5034674;28;20029;-62
2022/02/05 03:29:25;;;;;;;0.55;0.30;;;;;;;19.50;54.87;99102.28;5034385;28;20484;-62
2022/02/05 03:31:50;;;;;;;0.98;0.40;;;;;;;19.45;54.37;99109.44;5034321;28;20067;-62
2022/02/05 03:34:15;;;;;;;0.73;0.15;;;;;;;19.39;53.68;99100.25;5034469;28;20043;-62
2022/02/05 03:36:41;;;;;;;0.60;0.20;;;;;;;19.40;53.38;99101.94;5034233;28;20022;-62
2022/02/05 03:39:07;;;;;;;1.38;0.40;;;;;;;19.37;53.06;99101.53;5033956;28;20033;-62
2022/02/05 03:41:33;;;;;;;0.52;0.20;;;;;;;19.38;52.91;99106.78;5034130;28;20017;-62
2022/02/05 03:43:59;;;;;;;0.28;0.20;;;;;;;19.37;52.58;99110.56;5034250;28;20534;-62
2022/02/05 03:46:25;;;;;;;2.25;0.35;;;;;;;19.36;52.49;99110.78;5034130;28;20427;-62
2022/02/05 03:48:50;;;;;;;1.17;0.10;;;;;;;19.35;51.56;99115.38;5034136;28;20028;-62
2022/02/05 03:51:15;;;;;;;1.70;0.80;;;;;;;19.31;51.52;99114.13;5033086;28;20017;-62
2022/02/05 03:53:40;;;;;;;1.65;0.20;;;;;;;19.32;51.68;99115.84;5033668;28;20050;-62
2022/02/05 03:56:06;;;;;;;1.10;0.10;;;;;;;19.28;51.53;99114.56;5034037;28;20025;-62
2022/02/05 03:58:31;;;;;;;0.93;0.20;;;;;;;19.28;51.36;99122.75;5033712;28;20409;-62
2022/02/05 04:00:56;;;;;;;1.70;0.30;;;;;;;19.25;51.18;99120.47;5033975;28;20029;-62
2022/02/05 04:03:22;;;;;;;0.50;0.20;;;;;;;19.23;51.47;99111.69;5033680;28;20037;-62
2022/02/05 04:05:47;;;;;;;0.63;0.20;;;;;;;19.18;51.01;99104.16;5033697;28;20033;-62
2022/02/05 04:08:14;;;;;;;0.80;0.30;;;;;;;19.22;50.94;99107.28;5033388;28;20376;-62
2022/02/05 04:10:46;;;;;;;0.63;0.15;;;;;;;19.19;51.41;99103.13;5033578;28;20052;-62
2022/02/05 04:16:07;;;;;;;1.88;0.10;;;;;;;19.26;50.54;99105.78;5033954;28;20044;-62
2022/02/05 04:18:32;;;;;;;0.45;0.20;;;;;;;19.21;50.99;99113.78;5033347;28;20037;-62
2022/02/05 04:20:58;;;;;;;1.25;0.20;;;;;;;19.17;50.69;99115.28;5033611;28;20480;-62
2022/02/05 04:23:23;;;;;;;0.43;0.10;;;;;;;19.18;50.47;99119.69;5033370;28;20124;-62
2022/02/05 04:25:48;;;;;;;1.45;0.43;;;;;;;19.19;50.51;99126.78;5033332;28;20048;-61
2022/02/05 04:28:14;;;;;;;0.52;0.20;;;;;;;19.17;51.08;99126.19;5033418;28;20018;-62
2022/02/05 04:30:39;;;;;;;0.93;0.20;;;;;;;19.20;50.52;99128.47;5033210;28;20025;-62
2022/02/05 04:33:04;;;;;;;0.77;0.20;;;;;;;19.16;50.77;99138.13;5033283;28;20384;-62
2022/02/05 04:35:29;;;;;;;0.95;0.32;;;;;;;19.16;50.27;99146.31;5033105;28;20472;-62
2022/02/05 04:37:57;;;;;;;0.80;0.20;;;;;;;19.15;50.36;99141.91;5032842;28;20024;-62
2022/02/05 04:40:37;;;;;;;0.40;0.20;;;;;;;19.14;50.12;99140.22;5033116;28;20394;-61
2022/02/05 04:48:45;;;;;;;3.17;0.60;;;;;;;19.13;50.20;99147.56;5033342;28;20017;-62
2022/02/05 04:59:16;;;;;;;0.85;0.20;;;;;;;19.44;53.06;99135.03;5033041;28;20499;-62
2022/02/05 05:02:03;;;;;;;0.65;0.30;;;;;;;20.61;52.66;99142.47;5032200;28;20501;-62
2022/02/05 05:04:46;;;;;;;0.38;0.15;;;;;;;21.27;52.25;99141.69;5032056;28;20029;-62
2022/02/05 05:15:21;;;;;;;0.40;0.13;;;;;;;21.91;53.44;99153.78;4990706;28;20045;-62
2022/02/05 05:20:31;;;;;;;0.57;0.10;;;;;;;21.97;50.06;99151.16;4990915;28;20085;-62
2022/02/05 05:22:56;;;;;;;0.73;0.30;;;;;;;21.99;49.61;99159.97;4990759;28;20038;-63
2022/02/05 05:25:21;;;;;;;0.93;0.10;;;;;;;22.01;48.60;99164.16;4990571;28;20078;-62
2022/02/05 05:27:47;;;;;;;0.93;0.10;;;;;;;22.09;47.52;99160.25;4990549;28;20106;-62
2022/02/05 05:30:13;;;;;;;1.15;0.43;;;;;;;22.10;47.57;99161.94;4990730;28;20042;-62
2022/02/05 05:32:38;;;;;;;1.80;0.20;;;;;;;22.14;47.55;99163.09;4990350;28;20066;-62
2022/02/05 05:35:04;;;;;;;1.65;0.40;;;;;;;22.16;47.24;99169.19;4990621;28;20482;-62
2022/02/05 05:37:30;;;;;;;0.95;0.30;;;;;;;22.21;46.82;99174.78;4990010;28;20034;-62
2022/02/05 05:39:55;;;;;;;2.03;0.28;;;;;;;22.24;45.84;99168.00;4990531;28;20034;-62
2022/02/05 05:42:28;;;;;;;1.17;0.22;;;;;;;22.25;46.68;99159.56;4990525;28;20113;-62
2022/02/05 05:52:18;;;;;;;1.13;0.17;;;;;;;22.37;46.11;99156.84;5023891;28;20034;-62
2022/02/05 05:54:44;;;;;;;1.80;0.30;;;;;;;22.35;45.27;99153.50;5031859;28;20060;-62
2022/02/05 05:57:10;;;;;;;1.95;0.20;;;;;;;22.38;45.54;99153.84;5032024;28;20029;-62
2022/02/05 05:59:38;;;;;;;0.63;0.30;;;;;;;22.39;45.16;99147.31;5031931;28;20027;-62
2022/02/05 06:02:04;;;;;;;1.05;0.50;;;;;;;22.42;45.23;99160.50;5032057;28;20025;-62
2022/02/05 06:04:29;;;;;;;0.47;0.20;;;;;;;22.42;45.00;99155.03;5031818;28;20024;-62
2022/02/05 06:06:55;;;;;;;0.38;0.10;;;;;;;22.44;45.24;99166.59;5032106;28;20040;-62
2022/02/05 06:09:20;;;;;;;3.25;0.60;;;;;;;22.43;44.86;99167.66;5031533;28;20044;-62
2022/02/05 06:11:45;;;;;;;2.88;0.30;;;;;;;22.48;45.42;99150.50;5031803;28;20035;-62
2022/02/05 06:14:12;;;;;;;2.08;0.10;;;;;;;22.51;44.94;99155.53;5033521;28;20048;-62
2022/02/05 06:16:38;;;;;;;1.10;0.20;;;;;;;22.47;45.76;99157.88;5035735;28;20059;-62
2022/02/05 06:19:03;;;;;;;0.30;0.30;;;;;;;22.55;45.23;99156.72;5035754;28;20429;-62
2022/02/05 06:21:28;;;;;;;1.60;0.20;;;;;;;22.52;45.80;99155.28;5035450;28;20029;-61
2022/02/05 06:23:54;;;;;;;0.55;0.10;;;;;;;22.54;45.52;99159.69;5035691;28;20026;-62
2022/02/05 06:26:20;;;;;;;0.77;0.10;;;;;;;22.56;45.25;99160.28;5035672;28;20420;-62
2022/02/05 06:28:45;;;;;;;2.08;0.28;;;;;;;22.61;44.76;99153.00;5035605;28;20048;-62
2022/02/05 06:31:10;;;;;;;2.50;0.70;;;;;;;22.59;45.29;99162.53;5035596;28;20030;-62
2022/02/05 06:33:36;;;;;;;1.13;0.15;;;;;;;22.65;45.07;99164.31;5035449;28;20026;-62
2022/02/05 06:36:01;;;;;;;1.17;0.32;;;;;;;22.62;45.24;99159.31;5035478;28;20032;-62
2022/02/05 06:38:26;;;;;;;0.85;0.30;;;;;;;22.58;44.99;99163.59;5035069;28;20083;-62
2022/02/05 06:40:55;;;;;;;1.00;0.43;;;;;;;22.66;44.73;99155.84;5035452;28;20033;-62
2022/02/05 06:43:20;;;;;;;1.40;0.30;;;;;;;22.65;45.32;99158.81;5035327;28;20038;-62
2022/02/05 06:45:45;;;;;;;0.57;0.20;;;;;;;22.71;45.14;99157.88;5035157;28;20032;-62
2022/02/05 06:48:11;;;;;;;3.13;0.20;;;;;;;22.68;44.80;99161.13;5035333;28;20454;-62
2022/02/05 06:50:37;;;;;;;0.32;0.10;;;;;;;22.68;44.99;99158.38;5035079;28;20029;-62
2022/02/05 06:53:02;;;;;;;1.05;0.40;;;;;;;22.70;44.57;99169.91;5035019;28;20099;-62
2022/02/05 06:55:28;;;;;;;5.20;0.22;;;;;;;22.72;45.09;99163.13;5035037;28;20021;-62
2022/02/05 06:57:54;;;;;;;1.27;0.22;;;;;;;22.70;44.82;99167.19;5034907;28;20022;-62
2022/02/05 07:00:19;;;;;;;0.22;0.10;;;;;;;22.72;44.86;99163.13;5035141;28;20086;-62
2022/02/05 07:02:44;;;;;;;0.98;0.20;;;;;;;22.76;45.36;99167.03;5034870;28;20159;-62
2022/02/05 07:05:10;;;;;;;1.05;0.20;;;;;;;22.71;45.29;99164.19;5034972;28;20021;-62
2022/02/05 07:07:36;;;;;;;1.33;0.30;;;;;;;22.69;45.03;99166.34;5034385;28;20018;-62
2022/02/05 07:10:01;;;;;;;1.17;0.20;;;;;;;22.77;45.21;99174.19;5034965;28;20040;-62
2022/02/05 07:12:27;;;;;;;1.60;0.40;;;;;;;22.75;44.81;99175.50;5034677;28;20405;-62
2022/02/05 07:15:03;;;;;;;1.48;0.20;;;;;;;22.79;44.80;99179.41;5034824;28;20026;-62
2022/02/05 07:20:05;;;;;;;1.00;0.45;;;;;;;22.78;44.42;99191.44;5034693;28;20401;-62
2022/02/05 07:22:36;;;;;;;0.70;0.20;;;;;;;22.80;44.68;99189.31;5034517;28;20056;-62
2022/02/05 07:30:12;;;;;;;0.68;0.20;;;;;;;22.81;44.86;99199.19;5034972;28;20048;-62
2022/02/05 07:32:37;;;;;;;0.55;0.17;;;;;;;22.80;44.91;99194.78;5034342;28;20026;-61
2022/02/05 07:35:03;;;;;;;2.30;0.40;;;;;;;22.89;44.74;99209.00;5016647;28;20029;-63
2022/02/05 07:37:28;;;;;;;1.20;0.30;;;;;;;22.83;45.03;99210.75;5033914;28;20112;-62
2022/02/05 07:39:54;;;;;;;0.98;0.20;;;;;;;22.90;44.60;99207.91;5034303;28;20477;-62
2022/02/05 07:42:19;;;;;;;0.40;0.10;;;;;;;22.88;44.63;99180.75;5034386;28;20059;-62
2022/02/05 07:44:47;;;;;;;1.45;0.10;;;;;;;22.88;44.94;99191.72;5034149;28;20109;-62
2022/02/05 07:47:13;;;;;;;0.50;0.20;;;;;;;22.92;45.21;99192.91;5034196;28;20483;-63
2022/02/05 07:49:42;;;;;;;1.70;0.40;;;;;;;22.83;44.84;99193.50;5033890;28;20057;-62
2022/02/05 07:52:08;;;;;;;1.70;0.28;;;;;;;22.83;45.37;99188.00;5034214;28;20029;-62
2022/02/05 07:54:33;;;;;;;1.20;0.30;;;;;;;22.86;44.97;99198.53;5033748;28;20048;-62
2022/02/05 07:56:59;;;;;;;1.27;0.28;;;;;;;22.91;44.54;99191.22;5034051;28;20025;-62
2022/02/05 07:59:24;;;;;;;0.60;0.25;;;;;;;22.89;45.36;99196.13;5033834;28;20120;-62
2022/02/05 08:01:49;;;;;;;1.00;0.30;;;;;;;22.90;44.71;99189.56;5033749;28;20025;-62
2022/02/05 08:04:15;;;;;;;2.53;0.20;;;;;;;22.89;44.71;99196.13;5033936;28;20022;-62
2022/02/05 08:06:42;;;;;;;1.00;0.28;;;;;;;22.91;45.18;99188.50;5033643;28;20021;-62
2022/02/05 08:09:19;;;;;;;3.42;0.22;;;;;;;22.91;44.86;99195.88;5033355;28;20029;-62
2022/02/05 08:12:08;;;;;;;2.08;0.13;;;;;;;22.93;44.87;99191.81;5033529;28;20017;-61
2022/02/05 08:14:35;;;;;;;0.98;0.20;;;;;;;22.89;45.04;99192.56;5033274;28;20043;-62
2022/02/05 08:17:05;;;;;;;0.50;0.10;;;;;;;22.90;45.16;99195.06;5033946;28;20021;-62
2022/02/05 08:19:30;;;;;;;1.65;0.20;;;;;;;22.94;45.20;99195.41;5033456;28;20029;-62
2022/02/05 08:21:55;;;;;;;1.85;0.22;;;;;;;22.95;45.18;99197.88;5033510;28;20021;-62
2022/02/05 08:24:21;;;;;;;0.75;0.20;;;;;;;22.95;45.50;99200.63;5033169;28;20280;-62
2022/02/05 08:26:46;;;;;;;0.25;0.15;;;;;;;22.96;44.97;99205.03;5033380;28;20476;-62
2022/02/05 08:29:14;;;;;;;1.23;0.20;;;;;;;22.95;44.63;99205.28;5033405;28;20100;-62
2022/02/05 08:31:39;;;;;;;0.30;0.10;;;;;;;22.93;44.89;99213.75;5015475;28;20033;-62
2022/02/05 08:34:05;;;;;;;1.35;0.38;;;;;;;22.95;45.07;99210.75;5033311;28;20026;-62
2022/02/05 08:36:39;;;;;;;1.42;0.22;;;;;;;22.98;45.00;99213.84;5032469;28;20061;-62
2022/02/05 08:39:05;;;;;;;1.20;0.20;;;;;;;22.98;44.68;99216.59;5032699;28;20092;-62
2022/02/05 08:41:30;;;;;;;1.45;0.30;;;;;;;22.98;44.85;99213.84;5032981;28;20021;-62
2022/02/05 08:43:55;;;;;;;0.88;0.32;;;;;;;22.99;45.53;99221.00;5033074;28;20041;-62
2022/02/05 08:46:20;;;;;;;0.90;0.13;;;;;;;23.01;44.79;99216.13;5015250;28;20021;-62
2022/02/05 08:48:46;;;;;;;1.00;0.30;;;;;;;23.00;45.34;99217.19;5032902;28;20017;-62
2022/02/05 08:51:13;;;;;;;1.58;0.40;;;;;;;22.96;45.29;99218.72;5032947;28;20047;-62
2022/02/05 08:53:39;;;;;;;0.40;0.10;;;;;;;22.98;45.40;99224.81;5032602;28;20069;-63
2022/02/05 08:56:04;;;;;;;1.10;0.20;;;;;;;23.03;44.95;99222.19;5032902;28;20068;-62
2022/02/05 08:58:29;;;;;;;1.02;0.30;;;;;;;23.02;44.45;99223.28;5032614;28;20033;-62
2022/02/05 09:01:08;;;;;;;1.48;0.20;;;;;;;23.02;45.01;99226.00;5032850;28;20433;-62
2022/02/05 09:03:41;;;;;;;0.77;0.20;;;;;;;23.01;45.31;99218.88;5032866;28;20029;-61
2022/02/05 09:06:07;;;;;;;1.45;0.35;;;;;;;23.05;44.48;99225.53;5033057;28;20354;-62
2022/02/05 09:08:38;;;;;;;0.77;0.17;;;;;;;23.01;44.60;99224.34;5032340;28;20036;-62
2022/02/05 09:11:18;;;;;;;2.20;0.28;;;;;;;23.06;44.65;99227.19;5032618;28;20033;-62
2022/02/05 09:16:11;;;;;;;1.55;0.30;;;;;;;23.02;45.45;99226.00;5032977;28;20029;-62
2022/02/05 09:18:37;;;;;;;1.10;0.20;;;;;;;23.01;44.77;99223.50;5032362;28;20503;-62
2022/02/05 09:21:03;;;;;;;0.98;0.20;;;;;;;23.02;45.34;99217.78;5032591;28;20029;-62
2022/02/05 09:23:28;;;;;;;1.60;0.50;;;;;;;23.04;44.57;99218.38;5032364;28;20471;-62
2022/02/05 09:25:54;;;;;;;0.85;0.30;;;;;;;23.00;44.89;99217.19;5032410;28;20116;-62
2022/02/05 09:28:22;;;;;;;2.35;0.30;;;;;;;23.00;45.06;99222.66;5032435;28;20060;-62
2022/02/05 09:31:01;;;;;;;0.73;0.30;;;;;;;23.03;45.04;99216.72;5032414;28;20064;-62
2022/02/05 09:33:30;;;;;;;1.95;0.30;;;;;;;23.07;45.06;99219.81;5031646;28;20029;-62
2022/02/05 09:35:55;;;;;;;1.33;0.20;;;;;;;23.07;44.77;99223.38;5032290;28;20029;-62
2022/02/05 09:38:20;;;;;;;1.42;0.20;;;;;;;23.09;45.12;99223.97;5032044;28;20079;-62
2022/02/05 09:40:46;;;;;;;2.28;0.45;;;;;;;23.07;44.42;99223.38;5032304;28;20618;-62
2022/02/05 09:43:12;;;;;;;1.00;0.20;;;;;;;23.07;45.27;99222.53;5032261;28;20021;-62
2022/02/05 09:45:38;;;;;;;2.38;0.20;;;;;;;23.07;45.22;99228.84;5014295;28;20021;-63
2022/02/05 09:48:06;;;;;;;0.45;0.20;;;;;;;23.11;45.01;99230.03;5032221;28;20473;-62
2022/02/05 09:50:32;;;;;;;0.98;0.32;;;;;;;23.08;44.58;99225.03;5035930;28;20025;-62
2022/02/05 09:53:02;;;;;;;2.08;0.40;;;;;;;23.13;44.87;99237.19;5036504;28;20021;-62
2022/02/05 09:55:28;;;;;;;1.00;0.20;;;;;;;23.07;45.09;99239.81;5036197;28;20028;-62
2022/02/05 09:57:54;;;;;;;1.00;0.30;;;;;;;23.06;44.69;99232.69;5018355;28;20160;-62
2022/02/05 10:00:21;;;;;;;0.63;0.40;;;;;;;23.07;44.90;99231.59;5036252;28;20112;-63
2022/02/05 10:02:55;;;;;;;1.40;0.10;;;;;;;23.06;45.29;99235.41;5036111;28;20025;-62
2022/02/05 10:05:22;;;;;;;1.48;0.28;;;;;;;23.05;44.83;99236.50;5036008;28;20025;-63
2022/02/05 10:07:56;;;;;;;2.05;0.32;;;;;;;23.05;44.87;99241.97;5035790;28;20067;-62
2022/02/05 10:10:22;;;;;;;1.52;0.40;;;;;;;23.06;44.62;99248.28;5035710;28;20033;-62
2022/02/05 10:13:11;;;;;;;0.95;0.20;;;;;;;23.11;45.34;99251.97;5035807;28;20038;-62
2022/02/05 10:15:39;;;;;;;0.93;0.30;;;;;;;23.11;44.64;99246.47;5035768;28;20021;-62
2022/02/05 10:18:05;;;;;;;1.40;0.30;;;;;;;23.05;44.91;99250.19;5035846;28;20017;-62
2022/02/05 10:20:31;;;;;;;0.95;0.20;;;;;;;23.10;45.18;99249.47;5035658;28;20381;-62
2022/02/05 10:23:07;;;;;;;1.42;0.65;;;;;;;23.09;44.82;99247.78;5035679;28;20028;-62
2022/02/05 10:25:33;;;;;;;1.25;0.50;;;;;;;23.10;44.78;99252.19;5035583;28;20033;-63
2022/02/05 10:27:58;;;;;;;1.13;0.57;;;;;;;23.09;44.80;99256.03;5035708;28;20018;-62
2022/02/05 10:30:28;;;;;;;0.95;0.40;;;;;;;23.09;44.54;99243.16;5035596;28;20477;-63
2022/02/05 10:33:02;;;;;;;1.23;0.38;;;;;;;23.07;45.04;99241.72;5035666;28;20029;-62
2022/02/05 10:40:45;;;;;;;0.75;0.28;;;;;;;23.13;44.55;99253.63;5035533;28;20025;-62
2022/02/05 10:43:12;;;;;;;1.48;0.32;;;;;;;23.10;44.80;99250.28;5035404;28;20025;-62
2022/02/05 10:45:51;;;;;;;1.00;0.28;;;;;;;23.15;44.84;99263.28;5017427;28;20029;-62
2022/02/05 10:48:19;;;;;;;1.88;0.30;;;;;;;23.16;44.65;99264.09;5035382;28;20100;-62
2022/02/05 10:50:47;;;;;;;2.08;0.35;;;;;;;23.14;45.29;99263.50;5035119;28;20036;-62
2022/02/05 10:53:27;;;;;;;1.33;0.20;;;;;;;23.16;44.60;99270.41;5035053;28;20216;-62
2022/02/05 11:07:11;;;;;;;0.50;0.20;;;;;;;23.11;44.84;99279.38;4973461;28;20046;-62
2022/02/05 11:09:43;;;;;;;1.13;0.20;;;;;;;23.18;45.18;99272.91;4973468;28;20038;-61
2022/02/05 11:20:01;;;;;;;1.70;0.28;;;;;;;23.16;45.34;99292.34;4973621;28;20031;-62
2022/02/05 11:22:39;;;;;;;1.30;0.52;;;;;;;23.16;45.19;99291.50;4973292;28;20027;-62
2022/02/05 11:25:07;;;;;;;1.42;0.22;;;;;;;23.19;45.05;99288.31;4973383;28;20066;-62
2022/02/05 11:27:32;;;;;;;0.73;0.22;;;;;;;23.19;44.90;99291.06;4973298;28;20554;-62
2022/02/05 11:30:26;;;;;;;1.55;0.30;;;;;;;23.18;45.06;99297.59;4973368;28;20441;-62
2022/02/05 11:32:53;;;;;;;0.60;0.40;;;;;;;23.20;44.80;99298.22;4973296;28;20031;-62
2022/02/05 11:35:30;;;;;;;1.27;0.20;;;;;;;23.17;44.61;99304.16;5002167;28;20282;-62
2022/02/05 11:38:01;;;;;;;0.55;0.20;;;;;;;23.17;44.64;99302.22;5034236;28;20025;-62
2022/02/05 11:40:44;;;;;;;1.13;0.30;;;;;;;23.18;45.26;99303.06;5034173;28;20099;-62
2022/02/05 11:43:20;;;;;;;0.85;0.25;;;;;;;23.20;45.16;99303.69;5034367;28;20484;-61
2022/02/05 11:46:04;;;;;;;1.23;0.20;;;;;;;23.19;45.29;99296.53;5034092;28;20021;-62
2022/02/05 11:48:41;;;;;;;1.17;0.40;;;;;;;23.23;44.36;99311.44;5034077;28;20031;-62
2022/02/05 11:51:14;;;;;;;1.10;0.40;;;;;;;23.19;45.14;99308.34;5034144;28;20477;-62
2022/02/05 11:54:04;;;;;;;0.75;0.15;;;;;;;23.20;44.71;99322.88;5033790;28;20412;-62
2022/02/05 11:59:26;;;;;;;0.93;0.28;;;;;;;23.20;44.61;99310.00;5033891;28;20030;-61
2022/02/05 12:02:08;;;;;;;;;;;;;;;23.18;45.12;99314.03;5034218;28;20021;-62
2022/02/05 12:04:33;;;;;;;0.73;0.30;;;;;;;23.24;44.44;99316.66;5033667;28;19971;-62
2022/02/05 12:07:06;;;;;;;1.73;0.30;;;;;;;23.17;44.78;99309.63;5033695;28;20052;-62
2022/02/05 12:09:43;;;;;;;1.67;0.20;;;;;;;23.20;44.94;99309.19;5015919;28;20025;-62
2022/02/05 12:12:24;;;;;;;1.95;0.28;;;;;;;23.22;44.93;99302.38;5032975;28;20021;-62
2022/02/05 12:15:11;;;;;;;1.45;0.22;;;;;;;23.20;45.34;99299.03;5033729;28;20025;-62
2022/02/05 12:18:13;;;;;;;0.73;0.30;;;;;;;23.24;45.01;99299.38;5033619;28;20343;-62
2022/02/05 12:20:50;;;;;;;1.35;0.52;;;;;;;23.24;44.45;99307.63;5033708;28;20025;-62
2022/02/05 12:25:58;;;;;;;1.77;0.10;;;;;;;23.21;44.99;99308.94;5033315;28;20040;-62
2022/02/05 12:28:34;;;;;;;0.93;0.28;;;;;;;23.22;44.72;99309.75;5033646;28;20346;-62
2022/02/05 12:31:02;;;;;;;2.22;0.22;;;;;;;23.24;45.01;99310.34;5033527;28;20029;-62
2022/02/05 12:33:43;;;;;;;0.35;0.22;;;;;;;23.20;44.54;99320.13;5033170;28;20358;-62
2022/02/05 12:36:09;;;;;;;1.20;0.40;;;;;;;23.22;44.92;99318.00;5033081;28;20030;-62
2022/02/05 12:38:39;;;;;;;1.52;0.22;;;;;;;23.23;44.74;99325.13;5032684;28;20032;-62
2022/02/05 12:41:06;;;;;;;0.75;0.20;;;;;;;23.21;44.88;99324.53;5033460;28;20056;-61
2022/02/05 12:43:51;;;;;;;0.50;0.20;;;;;;;23.22;44.98;99323.47;5033027;28;20112;-62
2022/02/05 12:46:17;;;;;;;1.30;0.20;;;;;;;23.27;44.77;99331.81;5033216;28;20033;-62
2022/02/05 12:48:47;;;;;;;1.08;0.20;;;;;;;23.27;44.77;99335.38;5032901;28;20025;-62
2022/02/05 12:51:13;;;;;;;2.35;0.43;;;;;;;23.22;45.49;99328.94;5033053;28;20485;-62
2022/02/05 12:53:40;;;;;;;1.65;0.20;;;;;;;23.26;45.09;99335.63;5032655;28;20075;-61
2022/02/05 12:56:15;;;;;;;0.73;0.20;;;;;;;23.25;45.41;99344.91;5032927;28;20358;-62
2022/02/05 12:59:03;;;;;;;0.75;0.20;;;;;;;23.26;44.98;99338.34;5032654;28;20025;-62
2022/02/05 13:01:33;;;;;;;2.63;0.40;;;;;;;23.21;44.86;99341.00;5032736;28;20076;-62
2022/02/05 13:04:20;;;;;;;1.52;0.30;;;;;;;23.21;44.91;99349.22;5033072;28;20049;-62
2022/02/05 13:06:59;;;;;;;0.75;0.30;;;;;;;23.30;44.84;99347.75;5032430;28;20032;-62
2022/02/05 13:09:26;;;;;;;0.68;0.20;;;;;;;23.27;44.76;99342.78;5032591;28;20396;-62
2022/02/05 13:11:59;;;;;;;1.10;0.30;;;;;;;23.21;44.89;99349.22;5032941;28;20021;-62
2022/02/05 13:14:47;;;;;;;1.73;0.35;;;;;;;23.24;45.58;99348.72;5032596;28;20070;-62
2022/02/05 13:17:24;;;;;;;0.77;0.25;;;;;;;23.25;45.46;99353.13;5032594;28;20025;-62
2022/02/05 13:20:06;;;;;;;1.15;0.30;;;;;;;23.25;44.93;99358.63;5032482;28;20021;-62
2022/02/05 13:25:39;;;;;;;2.10;0.52;;;;;;;23.28;45.41;99371.84;5032564;28;20164;-62
2022/02/05 13:36:39;;;;;;;0.90;0.28;;;;;;;23.29;45.22;99379.00;4945164;29;20039;-62
2022/02/05 13:39:22;;;;;;;1.83;0.40;;;;;;;23.28;45.56;99374.59;4932714;29;20036;-62
2022/02/05 13:41:57;;;;;;;0.57;0.30;;;;;;;23.25;44.96;99378.66;4932557;29;20035;-62
2022/02/05 13:44:25;;;;;;;0.82;0.30;;;;;;;23.23;45.28;99385.44;4932719;29;20028;-62
2022/02/05 13:47:06;;;;;;;1.50;0.17;;;;;;;23.32;44.85;99386.75;4932670;29;20028;-62
2022/02/05 13:49:32;;;;;;;0.85;0.20;;;;;;;23.31;44.79;99385.06;4932500;29;20039;-62
2022/02/05 13:52:14;;;;;;;1.67;0.30;;;;;;;23.30;45.06;99391.63;4932774;29;20038;-62
2022/02/05 13:54:42;;;;;;;2.25;0.43;;;;;;;23.31;45.46;99394.13;4932201;29;20567;-62
2022/02/05 13:57:10;;;;;;;0.82;0.20;;;;;;;23.29;45.16;99395.44;4932591;29;20048;-62
2022/02/05 13:59:35;;;;;;;0.70;0.17;;;;;;;23.29;45.28;99395.44;4932258;29;20515;-61
2022/02/05 14:02:18;;;;;;;1.88;0.40;;;;;;;23.28;45.51;99404.75;4932454;29;20091;-62
2022/02/05 14:05:04;;;;;;;0.85;0.25;;;;;;;23.29;45.00;99395.44;4932351;29;20125;-62
2022/02/05 14:07:49;;;;;;;1.90;0.30;;;;;;;23.25;45.08;99403.31;4978220;28;20041;-62
2022/02/05 14:10:17;;;;;;;0.73;0.28;;;;;;;23.31;45.45;99401.53;5031876;28;20037;-62
2022/02/05 14:12:54;;;;;;;0.75;0.10;;;;;;;23.29;44.88;99409.16;5031878;28;20017;-62
2022/02/05 14:15:21;;;;;;;0.47;0.20;;;;;;;23.30;45.27;99402.59;5031987;28;20025;-62
2022/02/05 14:17:48;;;;;;;1.38;0.28;;;;;;;23.30;45.62;99402.59;5031761;28;20515;-61
2022/02/05 14:20:15;;;;;;;0.80;0.10;;;;;;;23.29;45.07;99404.50;5031990;28;20389;-62
2022/02/05 14:22:47;;;;;;;0.20;0.20;;;;;;;23.31;44.68;99415.22;5031614;28;20532;-62
2022/02/05 14:25:21;;;;;;;0.73;0.22;;;;;;;23.29;44.88;99406.41;5031818;28;20028;-62
2022/02/05 14:28:24;;;;;;;0.47;0.00;;;;;;;23.28;45.60;99402.84;5031748;28;20029;-62
2022/02/05 14:31:05;;;;;;;1.35;0.20;;;;;;;23.30;45.24;99408.09;5031848;28;20071;-62